createdAt,value
2022-09-06T00:01:10.830Z,99814.66
2022-09-06T00:03:39.392Z,99805.75
2022-09-06T00:06:08.892Z,99813.28
2022-09-06T00:08:36.437Z,99811.78
2022-09-06T00:11:04.004Z,99811.25
2022-09-06T00:13:31.708Z,99806.06
2022-09-06T00:16:07.800Z,99805.47
2022-09-06T00:18:35.679Z,99803.19
2022-09-06T00:21:04.405Z,99800.31
2022-09-06T00:23:31.934Z,99802.50
2022-09-06T00:26:04.029Z,99795.88
2022-09-06T00:28:31.592Z,99794.56
2022-09-06T00:30:59.161Z,99797.91
2022-09-06T00:33:28.095Z,99794.50
2022-09-06T00:36:01.233Z,99783.31
2022-09-06T00:38:28.844Z,99787.66
2022-09-06T00:40:57.232Z,99789.91
2022-09-06T00:43:24.943Z,99787.59
2022-09-06T00:45:54.213Z,99785.75
2022-09-06T00:48:22.880Z,99781.06
2022-09-06T00:50:54.893Z,99780.50
2022-09-06T00:53:22.776Z,99782.22
2022-09-06T00:55:50.521Z,99784.41
2022-09-06T00:58:18.106Z,99780.50
2022-09-06T01:00:45.860Z,99777.34
2022-09-06T01:03:13.841Z,99786.75
2022-09-06T01:05:53.908Z,99788.53
2022-09-06T01:08:37.206Z,99803.16
2022-09-06T01:11:23.388Z,99873.91
2022-09-06T01:14:01.013Z,99862.28
2022-09-06T01:16:37.138Z,99870.38
2022-09-06T01:19:31.915Z,99866.91
2022-09-06T01:22:15.306Z,99869.53
2022-09-06T01:25:05.169Z,99864.63
2022-09-06T01:28:03.711Z,99859.13
2022-09-06T01:30:36.568Z,99861.69
2022-09-06T01:33:13.681Z,99864.78
2022-09-06T01:35:45.556Z,99865.78
2022-09-06T01:38:14.169Z,99867.06
2022-09-06T01:40:41.729Z,99865.03
2022-09-06T01:43:14.595Z,99865.88
2022-09-06T01:45:52.940Z,99878.69
2022-09-06T01:48:31.138Z,99873.03
2022-09-06T01:51:09.291Z,99866.09
2022-09-06T01:54:15.829Z,99857.97
2022-09-06T01:56:54.822Z,99862.84
2022-09-06T01:59:41.745Z,99859.59
2022-09-06T02:02:15.004Z,99866.56
2022-09-06T02:04:46.989Z,99864.81
2022-09-06T02:07:21.044Z,99872.63
2022-09-06T02:09:52.313Z,99871.09
2022-09-06T02:12:22.302Z,99871.16
2022-09-06T02:14:56.922Z,99878.31
2022-09-06T02:17:28.910Z,99870.06
2022-09-06T02:20:00.828Z,99873.00
2022-09-06T02:22:33.266Z,99878.94
2022-09-06T02:25:02.052Z,99879.31
2022-09-06T02:27:31.104Z,99876.75
2022-09-06T02:30:02.827Z,99879.84
2022-09-06T02:32:31.936Z,99874.25
2022-09-06T02:34:59.616Z,99869.06
2022-09-06T02:37:28.065Z,99871.22
2022-09-06T02:39:56.114Z,99883.09
2022-09-06T02:42:25.535Z,99887.06
2022-09-06T02:44:53.131Z,99880.94
2022-09-06T02:47:22.035Z,99871.59
2022-09-06T02:49:49.562Z,99875.28
2022-09-06T02:52:17.447Z,99867.13
2022-09-06T02:54:45.197Z,99864.19
2022-09-06T02:57:12.822Z,99864.19
2022-09-06T02:59:40.505Z,99859.03
2022-09-06T03:02:08.127Z,99862.44
2022-09-06T03:04:37.020Z,99855.63
2022-09-06T03:07:04.864Z,99858.50
2022-09-06T03:09:32.441Z,99857.97
2022-09-06T03:12:00.028Z,99857.81
2022-09-06T03:14:30.210Z,99856.13
2022-09-06T03:16:57.882Z,99852.13
2022-09-06T03:19:25.457Z,99849.88
2022-09-06T03:21:54.966Z,99848.22
2022-09-06T03:24:22.485Z,99847.69
2022-09-06T03:26:50.309Z,99847.69
2022-09-06T03:29:17.823Z,99843.66
2022-09-06T03:31:45.363Z,99843.50
2022-09-06T03:34:12.914Z,99845.09
2022-09-06T03:36:40.482Z,99847.81
2022-09-06T03:39:09.396Z,99845.91
2022-09-06T03:41:38.145Z,99844.06
2022-09-06T03:44:05.961Z,99840.66
2022-09-06T03:46:33.723Z,99834.63
2022-09-06T03:49:01.918Z,99826.22
2022-09-06T03:51:29.471Z,99836.19
2022-09-06T03:53:57.656Z,99820.34
2022-09-06T03:56:27.181Z,99827.41
2022-09-06T03:58:54.856Z,99814.09
2022-09-06T04:01:22.517Z,99817.25
2022-09-06T04:03:50.221Z,99831.38
2022-09-06T04:06:17.886Z,99832.97
2022-09-06T04:08:45.428Z,99827.69
2022-09-06T04:11:13.030Z,99837.66
2022-09-06T04:13:42.011Z,99839.03
2022-09-06T04:16:09.610Z,99824.50
2022-09-06T04:18:37.504Z,99821.88
2022-09-06T04:21:06.082Z,99817.47
2022-09-06T04:23:39.156Z,99820.31
2022-09-06T04:26:07.587Z,99824.47
2022-09-06T04:28:35.371Z,99822.69
2022-09-06T04:31:05.570Z,99813.13
2022-09-06T04:33:34.855Z,99811.72
2022-09-06T04:36:04.388Z,99816.44
2022-09-06T04:38:36.010Z,99831.22
2022-09-06T04:41:03.615Z,99828.97
2022-09-06T04:43:31.127Z,99826.22
2022-09-06T04:46:05.881Z,99835.25
2022-09-06T04:48:35.469Z,99828.69
2022-09-06T04:51:03.082Z,99827.84
2022-09-06T04:53:30.634Z,99830.56
2022-09-06T04:55:58.908Z,99837.00
2022-09-06T04:58:26.662Z,99847.00
2022-09-06T05:00:54.870Z,99838.75
2022-09-06T05:03:23.794Z,99834.53
2022-09-06T05:05:51.386Z,99837.00
2022-09-06T05:08:18.947Z,99842.47
2022-09-06T05:10:46.515Z,99848.16
2022-09-06T05:13:14.116Z,99845.88
2022-09-06T05:15:41.706Z,99844.28
2022-09-06T05:18:12.917Z,99846.88
2022-09-06T05:20:44.923Z,99848.09
2022-09-06T05:23:12.448Z,99848.97
2022-09-06T05:25:40.015Z,99854.69
2022-09-06T05:28:07.575Z,99848.41
2022-09-06T05:30:35.124Z,99855.13
2022-09-06T05:33:02.685Z,99858.75
2022-09-06T05:35:30.267Z,99863.31
2022-09-06T05:37:59.120Z,99865.31
2022-09-06T05:40:26.672Z,99866.72
2022-09-06T05:42:54.218Z,99851.16
2022-09-06T05:45:21.946Z,99869.88
2022-09-06T05:47:49.543Z,99863.19
2022-09-06T05:50:17.330Z,99867.16
2022-09-06T05:52:44.869Z,99863.69
2022-09-06T05:55:14.110Z,99873.81
2022-09-06T05:57:41.666Z,99872.28
2022-09-06T06:00:12.065Z,99862.41
2022-09-06T06:02:40.587Z,99857.28
2022-09-06T06:05:09.142Z,99859.81
2022-09-06T06:07:36.737Z,99849.97
2022-09-06T06:10:05.026Z,99845.13
2022-09-06T06:12:34.024Z,99845.84
2022-09-06T06:15:01.590Z,99850.25
2022-09-06T06:17:29.465Z,99846.09
2022-09-06T06:19:58.227Z,99849.06
2022-09-06T06:22:25.797Z,99844.34
2022-09-06T06:24:53.310Z,99843.44
2022-09-06T06:27:20.885Z,99844.91
2022-09-06T06:29:50.442Z,99843.19
2022-09-06T06:32:17.982Z,99831.16
2022-09-06T06:34:45.526Z,99835.41
2022-09-06T06:37:13.073Z,99834.66
2022-09-06T06:39:40.883Z,99831.41
2022-09-06T06:42:09.101Z,99836.88
2022-09-06T06:44:36.661Z,99835.00
2022-09-06T06:47:05.744Z,99831.88
2022-09-06T06:49:33.310Z,99835.91
2022-09-06T06:52:00.842Z,99833.06
2022-09-06T06:54:32.097Z,99826.69
2022-09-06T06:56:59.623Z,99822.97
2022-09-06T06:59:27.162Z,99825.97
2022-09-06T07:01:54.781Z,99817.75
2022-09-06T07:04:24.027Z,99819.16
2022-09-06T07:12:29.061Z,99825.28
2022-09-06T07:14:56.817Z,99816.34
2022-09-06T07:17:24.371Z,99823.88
2022-09-06T07:22:41.559Z,99819.81
2022-09-06T07:25:12.175Z,99820.03
2022-09-06T07:27:48.873Z,99821.56
2022-09-06T07:30:17.425Z,99819.97
2022-09-06T07:32:45.018Z,99819.81
2022-09-06T07:35:14.351Z,99823.22
2022-09-06T07:37:42.146Z,99829.91
2022-09-06T07:40:11.222Z,99819.03
2022-09-06T07:42:38.984Z,99816.34
2022-09-06T07:45:07.363Z,99811.53
2022-09-06T07:53:15.486Z,99807.03
2022-09-06T07:55:47.103Z,99811.84
2022-09-06T07:58:15.212Z,99802.50
2022-09-06T08:00:42.928Z,99808.28
2022-09-06T08:03:10.610Z,99807.66
2022-09-06T08:11:15.254Z,99807.34
2022-09-06T08:13:43.314Z,99807.88
2022-09-06T08:16:12.591Z,99810.25
2022-09-06T08:18:40.264Z,99815.03
2022-09-06T08:21:12.868Z,99807.34
2022-09-06T08:23:42.636Z,99801.97
2022-09-06T08:26:10.255Z,99803.94
2022-09-06T08:28:38.123Z,99808.38
2022-09-06T08:31:10.244Z,99811.75
2022-09-06T08:33:38.705Z,99806.34
2022-09-06T08:36:07.223Z,99811.44
2022-09-06T08:38:36.354Z,99805.88
2022-09-06T08:41:10.024Z,99810.16
2022-09-06T08:43:38.638Z,99816.66
2022-09-06T08:46:08.803Z,99810.53
2022-09-06T08:48:39.840Z,99816.31
2022-09-06T08:51:38.543Z,99825.72
2022-09-06T08:54:16.196Z,99823.16
2022-09-06T08:56:55.043Z,99823.53
2022-09-06T08:59:23.190Z,99815.53
2022-09-06T09:02:02.680Z,99806.69
2022-09-06T09:04:32.648Z,99807.69
2022-09-06T09:07:11.412Z,99805.66
2022-09-06T09:09:40.364Z,99809.41
2022-09-06T09:12:09.703Z,99804.28
2022-09-06T09:14:40.304Z,99806.00
2022-09-06T09:17:16.762Z,99805.44
2022-09-06T09:19:44.372Z,99802.22
2022-09-06T09:22:13.547Z,99804.75
2022-09-06T09:24:42.624Z,99794.19
2022-09-06T09:27:13.293Z,99792.50
2022-09-06T09:32:49.469Z,99791.91
2022-09-06T09:35:20.703Z,99786.94
2022-09-06T09:37:51.250Z,99784.53
2022-09-06T09:40:34.844Z,99787.59
2022-09-06T09:43:15.473Z,99790.47
2022-09-06T09:45:43.872Z,99784.13
2022-09-06T09:48:26.930Z,99778.31
2022-09-06T09:50:55.550Z,99769.41
2022-09-06T09:53:26.022Z,99772.81
2022-09-06T09:55:59.896Z,99772.59
2022-09-06T09:58:33.145Z,99765.69
2022-09-06T10:01:12.106Z,99765.13
2022-09-06T10:09:20.024Z,99758.84
2022-09-06T10:11:55.822Z,99758.28
2022-09-06T10:14:29.228Z,99750.03
2022-09-06T10:16:58.057Z,99761.41
2022-09-06T10:19:41.942Z,99759.72
2022-09-06T10:22:21.677Z,99762.94
2022-09-06T10:25:08.298Z,99760.06
2022-09-06T10:27:55.440Z,99752.31
2022-09-06T10:30:31.484Z,99751.75
2022-09-06T10:33:06.457Z,99745.16
2022-09-06T10:35:38.734Z,99745.72
2022-09-06T10:38:20.743Z,99750.56
2022-09-06T10:40:58.964Z,99753.38
2022-09-06T10:43:35.951Z,99753.81
2022-09-06T10:46:08.986Z,99736.91
2022-09-06T10:48:41.989Z,99742.00
2022-09-06T10:51:18.970Z,99740.00
2022-09-06T10:53:50.540Z,99741.91
2022-09-06T10:56:23.451Z,99738.31
2022-09-06T11:01:52.076Z,99737.34
2022-09-06T11:04:27.971Z,99741.94
2022-09-06T11:07:00.086Z,99736.34
2022-09-06T11:09:33.047Z,99733.56
2022-09-06T11:12:09.310Z,99736.44
2022-09-06T11:14:39.800Z,99729.72
2022-09-06T11:17:13.893Z,99726.78
2022-09-06T11:19:47.848Z,99730.28
2022-09-06T11:22:29.404Z,99735.78
2022-09-06T11:25:19.898Z,99728.09
2022-09-06T11:27:57.843Z,99739.44
2022-09-06T11:30:28.325Z,99741.09
2022-09-06T11:33:10.992Z,99739.44
2022-09-06T11:35:41.410Z,99737.22
2022-09-06T11:38:21.518Z,99738.59
2022-09-06T11:40:53.132Z,99731.09
2022-09-06T11:43:44.977Z,99733.91
2022-09-06T11:46:52.322Z,99738.72
2022-09-06T11:49:34.513Z,99735.78
2022-09-06T11:52:03.577Z,99731.19
2022-09-06T11:54:44.014Z,99727.63
2022-09-06T11:57:17.581Z,99732.84
2022-09-06T11:59:56.596Z,99732.25
2022-09-06T12:02:36.368Z,99722.28
2022-09-06T12:05:29.130Z,99718.94
2022-09-06T12:08:30.149Z,99724.41
2022-09-06T12:11:07.070Z,99721.78
2022-09-06T12:13:48.606Z,99720.13
2022-09-06T12:16:17.718Z,99717.63
2022-09-06T12:19:01.225Z,99715.13
2022-09-06T12:21:46.000Z,99715.59
2022-09-06T12:24:47.214Z,99709.28
2022-09-06T12:27:17.144Z,99711.56
2022-09-06T12:29:58.002Z,99712.56
2022-09-06T12:32:31.643Z,99713.81
2022-09-06T12:37:57.008Z,99702.53
2022-09-06T12:40:26.935Z,99696.59
2022-09-06T12:42:55.327Z,99698.53
2022-09-06T12:45:27.396Z,99688.22
2022-09-06T12:48:06.286Z,99692.75
2022-09-06T12:50:35.619Z,99690.44
2022-09-06T12:53:05.206Z,99689.19
2022-09-06T12:55:35.630Z,99684.75
2022-09-06T12:58:05.490Z,99682.41
2022-09-06T13:00:37.729Z,99683.69
2022-09-06T13:03:20.488Z,99680.72
2022-09-06T13:05:49.615Z,99683.94
2022-09-06T13:08:25.915Z,99687.53
2022-09-06T13:10:53.951Z,99687.13
2022-09-06T13:13:24.652Z,99690.50
2022-09-06T13:15:52.978Z,99682.28
2022-09-06T13:18:23.429Z,99686.25
2022-09-06T13:21:06.583Z,99688.81
2022-09-06T13:23:42.305Z,99683.53
2022-09-06T13:26:10.044Z,99683.09
2022-09-06T13:28:38.516Z,99684.19
2022-09-06T13:31:12.937Z,99675.94
2022-09-06T13:33:41.937Z,99672.53
2022-09-06T13:36:22.349Z,99672.09
2022-09-06T13:38:50.708Z,99660.53
2022-09-06T13:41:37.870Z,99670.25
2022-09-06T13:44:07.888Z,99666.00
2022-09-06T13:46:37.043Z,99669.19
2022-09-06T13:49:05.609Z,99658.41
2022-09-06T13:51:35.272Z,99662.38
2022-09-06T13:54:08.041Z,99663.84
2022-09-06T13:56:35.783Z,99660.50
2022-09-06T13:59:04.270Z,99664.72
2022-09-06T14:01:33.702Z,99663.44
2022-09-06T14:04:01.330Z,99668.53
2022-09-06T14:06:29.069Z,99668.94
2022-09-06T14:09:07.779Z,99668.72
2022-09-06T14:11:36.442Z,99671.88
2022-09-06T14:14:06.606Z,99665.34
2022-09-06T14:16:34.756Z,99673.38
2022-09-06T14:19:02.388Z,99665.97
2022-09-06T14:21:30.086Z,99672.09
2022-09-06T14:24:03.844Z,99672.72
2022-09-06T14:26:31.677Z,99665.97
2022-09-06T14:28:59.221Z,99662.97
2022-09-06T14:31:28.893Z,99655.34
2022-09-06T14:33:57.900Z,99660.41
2022-09-06T14:36:27.269Z,99656.84
2022-09-06T14:38:54.827Z,99656.41
2022-09-06T14:41:23.754Z,99654.09
2022-09-06T14:43:54.349Z,99647.75
2022-09-06T14:46:23.334Z,99651.16
2022-09-06T14:48:57.498Z,99650.72
2022-09-06T14:51:25.064Z,99650.28
2022-09-06T14:53:54.952Z,99643.69
2022-09-06T14:56:24.224Z,99632.75
2022-09-06T14:58:51.837Z,99633.19
2022-09-06T15:01:21.880Z,99635.09
2022-09-06T15:03:51.645Z,99637.19
2022-09-06T15:06:21.062Z,99630.63
2022-09-06T15:08:48.856Z,99628.72
2022-09-06T15:11:30.075Z,99620.47
2022-09-06T15:13:59.340Z,99619.66
2022-09-06T15:16:27.315Z,99618.16
2022-09-06T15:18:55.290Z,99609.94
2022-09-06T15:21:23.782Z,99609.25
2022-09-06T15:23:52.565Z,99603.16
2022-09-06T15:26:21.485Z,99601.88
2022-09-06T15:28:49.102Z,99608.66
2022-09-06T15:31:19.450Z,99596.59
2022-09-06T15:33:48.704Z,99598.66
2022-09-06T15:36:16.559Z,99592.16
2022-09-06T15:38:47.286Z,99593.16
2022-09-06T15:41:16.673Z,99591.09
2022-09-06T15:43:47.122Z,99591.53
2022-09-06T15:46:15.805Z,99584.78
2022-09-06T15:48:46.255Z,99587.69
2022-09-06T15:51:15.824Z,99585.13
2022-09-06T15:53:43.770Z,99588.91
2022-09-06T15:56:15.477Z,99588.47
2022-09-06T15:58:43.105Z,99585.91
2022-09-06T16:01:12.421Z,99582.94
2022-09-06T16:03:41.912Z,99576.56
2022-09-06T16:06:28.647Z,99574.66
2022-09-06T16:08:59.410Z,99568.53
2022-09-06T16:11:27.965Z,99570.47
2022-09-06T16:13:56.150Z,99571.50
2022-09-06T16:16:24.057Z,99566.84
2022-09-06T16:18:52.965Z,99568.28
2022-09-06T16:21:24.446Z,99566.16
2022-09-06T16:23:54.467Z,99568.03
2022-09-06T16:26:22.985Z,99562.75
2022-09-06T16:28:51.849Z,99560.81
2022-09-06T16:31:20.582Z,99559.03
2022-09-06T16:33:48.826Z,99560.69
2022-09-06T16:36:17.465Z,99570.19
2022-09-06T16:38:47.161Z,99559.84
2022-09-06T16:41:18.178Z,99565.03
2022-09-06T16:43:47.340Z,99562.03
2022-09-06T16:46:15.082Z,99566.16
2022-09-06T16:48:42.886Z,99566.56
2022-09-06T16:51:15.285Z,99560.81
2022-09-06T16:53:44.506Z,99558.75
2022-09-06T16:56:15.647Z,99565.94
2022-09-06T16:58:43.788Z,99565.47
2022-09-06T17:01:12.111Z,99564.56
2022-09-06T17:03:40.383Z,99566.75
2022-09-06T17:06:09.206Z,99562.25
2022-09-06T17:08:37.414Z,99573.00
2022-09-06T17:11:07.044Z,99572.44
2022-09-06T17:13:36.915Z,99565.88
2022-09-06T17:16:23.141Z,99571.25
2022-09-06T17:18:53.481Z,99564.97
2022-09-06T17:21:21.575Z,99568.28
2022-09-06T17:23:50.270Z,99565.03
2022-09-06T17:26:19.685Z,99558.84
2022-09-06T17:28:49.322Z,99563.34
2022-09-06T17:31:21.018Z,99556.09
2022-09-06T17:33:51.379Z,99562.91
2022-09-06T17:36:21.176Z,99560.66
2022-09-06T17:38:53.334Z,99562.19
2022-09-06T17:41:24.097Z,99568.16
2022-09-06T17:43:53.978Z,99565.31
2022-09-06T17:46:25.238Z,99567.72
2022-09-06T17:48:55.854Z,99566.28
2022-09-06T17:51:23.477Z,99558.84
2022-09-06T17:53:51.488Z,99569.66
2022-09-06T17:56:19.797Z,99564.28
2022-09-06T17:58:54.977Z,99567.94
2022-09-06T18:01:24.387Z,99564.09
2022-09-06T18:03:52.406Z,99571.97
2022-09-06T18:06:23.415Z,99564.72
2022-09-06T18:08:53.007Z,99560.28
2022-09-06T18:11:22.773Z,99564.59
2022-09-06T18:13:57.698Z,99564.31
2022-09-06T18:16:26.546Z,99567.19
2022-09-06T18:18:55.862Z,99566.06
2022-09-06T18:21:24.889Z,99575.75
2022-09-06T18:23:52.621Z,99575.94
2022-09-06T18:26:20.180Z,99567.91
2022-09-06T18:28:47.999Z,99570.16
2022-09-06T18:31:21.980Z,99560.63
2022-09-06T18:33:49.960Z,99564.69
2022-09-06T18:36:19.385Z,99565.38
2022-09-06T18:38:47.294Z,99562.13
2022-09-06T18:41:30.555Z,99566.72
2022-09-06T18:44:00.387Z,99564.69
2022-09-06T18:46:29.755Z,99567.94
2022-09-06T18:48:57.375Z,99568.63
2022-09-06T18:51:25.183Z,99562.66
2022-09-06T18:53:53.062Z,99566.59
2022-09-06T18:56:20.984Z,99565.19
2022-09-06T18:58:48.898Z,99560.47
2022-09-06T19:01:19.513Z,99561.09
2022-09-06T19:03:48.567Z,99560.28
2022-09-06T19:06:18.704Z,99566.22
2022-09-06T19:08:47.461Z,99563.38
2022-09-06T19:11:17.635Z,99558.28
2022-09-06T19:13:46.953Z,99559.16
2022-09-06T19:16:15.453Z,99560.59
2022-09-06T19:18:43.174Z,99556.97
2022-09-06T19:21:14.236Z,99549.09
2022-09-06T19:23:44.019Z,99544.53
2022-09-06T19:26:14.526Z,99544.19
2022-09-06T19:28:42.197Z,99543.69
2022-09-06T19:31:15.548Z,99536.88
2022-09-06T19:33:44.438Z,99538.78
2022-09-06T19:36:14.122Z,99537.09
2022-09-06T19:39:01.852Z,99530.28
2022-09-06T19:41:30.956Z,99519.72
2022-09-06T19:44:00.095Z,99514.63
2022-09-06T19:46:28.341Z,99514.94
2022-09-06T19:48:56.813Z,99520.75
2022-09-06T19:51:25.871Z,99508.63
2022-09-06T19:53:55.075Z,99503.19
2022-09-06T19:56:24.223Z,99501.66
2022-09-06T19:58:55.509Z,99498.13
2022-09-06T20:01:23.612Z,99495.72
2022-09-06T20:03:51.437Z,99486.66
2022-09-06T20:06:19.077Z,99493.81
2022-09-06T20:08:50.844Z,99489.69
2022-09-06T20:11:19.290Z,99498.00
2022-09-06T20:13:47.101Z,99507.66
2022-09-06T20:16:15.713Z,99514.66
2022-09-06T20:18:43.344Z,99502.84
2022-09-06T20:21:13.752Z,99509.19
2022-09-06T20:23:41.942Z,99502.88
2022-09-06T20:26:13.432Z,99505.19
2022-09-06T20:28:40.978Z,99504.84
2022-09-06T20:31:10.744Z,99506.66
2022-09-06T20:33:39.362Z,99502.19
2022-09-06T20:36:08.901Z,99500.06
2022-09-06T20:38:37.970Z,99509.09
2022-09-06T20:41:07.824Z,99511.66
2022-09-06T20:43:37.758Z,99508.53
2022-09-06T20:46:10.668Z,99501.88
2022-09-06T20:48:43.629Z,99509.41
2022-09-06T20:51:14.804Z,99510.25
2022-09-06T20:53:42.885Z,99511.47
2022-09-06T20:56:12.214Z,99508.53
2022-09-06T20:58:41.945Z,99506.72
2022-09-06T21:01:11.635Z,99507.91
2022-09-06T21:03:41.038Z,99506.72
2022-09-06T21:06:09.494Z,99507.22
2022-09-06T21:08:42.381Z,99515.75
2022-09-06T21:11:11.636Z,99513.50
2022-09-06T21:13:39.538Z,99511.00
2022-09-06T21:16:08.874Z,99516.50
2022-09-06T21:18:37.023Z,99515.53
2022-09-06T21:21:06.968Z,99501.22
2022-09-06T21:23:36.344Z,99503.75
2022-09-06T21:26:06.047Z,99499.00
2022-09-06T21:28:36.529Z,99506.53
2022-09-06T21:31:07.993Z,99510.47
2022-09-06T21:33:39.112Z,99512.34
2022-09-06T21:36:08.912Z,99520.22
2022-09-06T21:38:38.277Z,99515.84
2022-09-06T21:41:07.801Z,99520.25
2022-09-06T21:43:35.838Z,99526.59
2022-09-06T21:46:04.006Z,99518.78
2022-09-06T21:48:31.978Z,99520.13
2022-09-06T21:51:00.985Z,99521.09
2022-09-06T21:53:28.530Z,99525.34
2022-09-06T21:56:00.905Z,99529.97
2022-09-06T21:58:28.537Z,99537.50
2022-09-06T22:00:59.157Z,99534.94
2022-09-06T22:03:27.310Z,99538.00
2022-09-06T22:05:55.079Z,99538.50
2022-09-06T22:08:24.569Z,99527.09
2022-09-06T22:10:52.629Z,99522.81
2022-09-06T22:13:21.388Z,99509.19
2022-09-06T22:15:49.177Z,99506.47
2022-09-06T22:18:16.753Z,99499.34
2022-09-06T22:20:44.266Z,99478.91
2022-09-06T22:23:11.879Z,99472.84
2022-09-06T22:25:42.818Z,99454.44
2022-09-06T22:28:10.952Z,99435.03
2022-09-06T22:30:38.498Z,99426.16
2022-09-06T22:33:06.034Z,99418.34
2022-09-06T22:35:33.570Z,99397.88
2022-09-06T22:38:01.254Z,99392.75
2022-09-06T22:40:28.826Z,99404.00
2022-09-06T22:42:57.696Z,99401.81
2022-09-06T22:45:25.205Z,99407.25
2022-09-06T22:47:53.730Z,99398.22
2022-09-06T22:50:21.293Z,99396.06
2022-09-06T22:52:48.847Z,99383.97
2022-09-06T22:55:17.123Z,99379.00
2022-09-06T22:57:44.706Z,99372.69
2022-09-06T23:00:15.771Z,99353.88
2022-09-06T23:02:43.304Z,99351.66
2022-09-06T23:05:10.866Z,99353.00
2022-09-06T23:07:38.422Z,99347.25
2022-09-06T23:10:06.969Z,99333.50
2022-09-06T23:12:34.527Z,99335.00
2022-09-06T23:15:02.085Z,99328.13
2022-09-06T23:17:31.392Z,99339.84
2022-09-06T23:19:58.928Z,99348.53
2022-09-06T23:22:26.575Z,99361.91
2022-09-06T23:24:54.124Z,99370.44
2022-09-06T23:27:22.214Z,99382.69
2022-09-06T23:29:49.765Z,99379.44
2022-09-06T23:32:17.398Z,99381.59
2022-09-06T23:34:46.286Z,99372.38
2022-09-06T23:37:13.872Z,99384.19
2022-09-06T23:39:41.417Z,99372.16
2022-09-06T23:42:09.135Z,99386.25
2022-09-06T23:44:36.665Z,99406.53
2022-09-06T23:47:04.263Z,99430.06
2022-09-06T23:49:31.852Z,99539.34
2022-09-06T23:52:00.752Z,99543.41
2022-09-06T23:54:28.264Z,99567.50
2022-09-06T23:56:55.846Z,99586.94
2022-09-06T23:59:23.388Z,99598.94
